sensor_id;sensor_type;location;lat;lon;timestamp;pressure;altitude;pressure_sealevel;temperature;humidity
75039;BME280;63609;49.992;14.512;2023-03-25T00:01:35;97176.44;;;8.19;61.79
75039;BME280;63609;49.992;14.512;2023-03-25T00:04:06;97179.63;;;8.22;61.74
75039;BME280;63609;49.992;14.512;2023-03-25T00:06:33;97174.56;;;8.11;62.20
75039;BME280;63609;49.992;14.512;2023-03-25T00:09:00;97174.63;;;7.93;62.85
75039;BME280;63609;49.992;14.512;2023-03-25T00:11:28;97170.53;;;7.81;62.74
75039;BME280;63609;49.992;14.512;2023-03-25T00:14:01;97165.84;;;7.93;62.15
75039;BME280;63609;49.992;14.512;2023-03-25T00:16:30;97154.28;;;7.84;62.62
75039;BME280;63609;49.992;14.512;2023-03-25T00:18:57;97167.84;;;7.73;62.92
75039;BME280;63609;49.992;14.512;2023-03-25T00:21:26;97165.22;;;8.07;62.16
75039;BME280;63609;49.992;14.512;2023-03-25T00:23:54;97167.38;;;8.04;61.65
75039;BME280;63609;49.992;14.512;2023-03-25T00:26:21;97168.69;;;8.00;61.79
75039;BME280;63609;49.992;14.512;2023-03-25T00:28:48;97155.44;;;7.56;63.00
75039;BME280;63609;49.992;14.512;2023-03-25T00:31:15;97160.38;;;7.77;62.58
75039;BME280;63609;49.992;14.512;2023-03-25T00:33:43;97158.06;;;7.74;62.52
75039;BME280;63609;49.992;14.512;2023-03-25T00:36:10;97161.44;;;7.84;62.18
75039;BME280;63609;49.992;14.512;2023-03-25T00:38:40;97160.50;;;7.67;62.86
75039;BME280;63609;49.992;14.512;2023-03-25T00:41:14;97164.56;;;7.53;63.19
75039;BME280;63609;49.992;14.512;2023-03-25T00:43:44;97164.81;;;7.68;62.98
75039;BME280;63609;49.992;14.512;2023-03-25T00:46:11;97155.19;;;7.67;62.51
75039;BME280;63609;49.992;14.512;2023-03-25T00:48:39;97158.94;;;7.56;62.99
75039;BME280;63609;49.992;14.512;2023-03-25T00:51:06;97167.28;;;7.44;63.44
75039;BME280;63609;49.992;14.512;2023-03-25T00:53:36;97164.72;;;7.34;63.67
75039;BME280;63609;49.992;14.512;2023-03-25T00:56:04;97154.00;;;7.44;63.22
75039;BME280;63609;49.992;14.512;2023-03-25T00:58:32;97168.50;;;7.49;63.24
75039;BME280;63609;49.992;14.512;2023-03-25T01:03:30;97153.91;;;7.18;64.62
75039;BME280;63609;49.992;14.512;2023-03-25T01:05:58;97159.16;;;7.27;63.68
75039;BME280;63609;49.992;14.512;2023-03-25T01:08:25;97156.75;;;7.34;63.53
75039;BME280;63609;49.992;14.512;2023-03-25T01:10:57;97164.09;;;7.22;64.14
75039;BME280;63609;49.992;14.512;2023-03-25T01:13:24;97167.97;;;7.46;63.43
75039;BME280;63609;49.992;14.512;2023-03-25T01:15:51;97165.91;;;7.22;64.10
75039;BME280;63609;49.992;14.512;2023-03-25T01:18:19;97159.41;;;7.34;63.73
75039;BME280;63609;49.992;14.512;2023-03-25T01:20:46;97161.09;;;7.35;63.97
75039;BME280;63609;49.992;14.512;2023-03-25T01:23:13;97165.03;;;7.31;63.78
75039;BME280;63609;49.992;14.512;2023-03-25T01:25:41;97164.31;;;7.11;64.82
75039;BME280;63609;49.992;14.512;2023-03-25T01:28:08;97161.97;;;7.61;63.04
75039;BME280;63609;49.992;14.512;2023-03-25T01:30:35;97167.13;;;7.89;62.16
75039;BME280;63609;49.992;14.512;2023-03-25T01:33:02;97154.63;;;7.38;63.50
75039;BME280;63609;49.992;14.512;2023-03-25T01:35:29;97159.00;;;7.47;62.86
75039;BME280;63609;49.992;14.512;2023-03-25T01:37:57;97165.28;;;7.63;62.91
75039;BME280;63609;49.992;14.512;2023-03-25T01:40:24;97146.97;;;7.34;63.44
75039;BME280;63609;49.992;14.512;2023-03-25T01:42:51;97144.00;;;7.38;63.60
75039;BME280;63609;49.992;14.512;2023-03-25T01:45:27;97151.50;;;7.42;64.10
75039;BME280;63609;49.992;14.512;2023-03-25T01:48:05;97152.91;;;7.28;64.26
75039;BME280;63609;49.992;14.512;2023-03-25T01:50:42;97145.31;;;7.33;64.16
75039;BME280;63609;49.992;14.512;2023-03-25T01:53:10;97157.50;;;7.26;64.79
75039;BME280;63609;49.992;14.512;2023-03-25T01:55:38;97151.59;;;7.32;64.53
75039;BME280;63609;49.992;14.512;2023-03-25T01:58:10;97156.75;;;7.34;64.65
75039;BME280;63609;49.992;14.512;2023-03-25T02:00:39;97150.97;;;7.39;64.35
75039;BME280;63609;49.992;14.512;2023-03-25T02:03:12;97148.00;;;7.59;63.47
75039;BME280;63609;49.992;14.512;2023-03-25T02:08:08;97131.91;;;7.61;63.38
75039;BME280;63609;49.992;14.512;2023-03-25T02:10:35;97139.91;;;7.43;64.00
75039;BME280;63609;49.992;14.512;2023-03-25T02:13:04;97145.09;;;7.53;63.00
75039;BME280;63609;49.992;14.512;2023-03-25T02:15:44;97150.03;;;7.91;61.95
75039;BME280;63609;49.992;14.512;2023-03-25T02:21:11;97147.91;;;7.69;62.47
75039;BME280;63609;49.992;14.512;2023-03-25T02:24:16;97145.09;;;7.53;63.16
75039;BME280;63609;49.992;14.512;2023-03-25T02:38:49;97123.19;;;7.51;63.82
75039;BME280;63609;49.992;14.512;2023-03-25T02:41:21;97127.41;;;7.36;64.12
75039;BME280;63609;49.992;14.512;2023-03-25T02:46:27;97121.16;;;7.27;64.27
75039;BME280;63609;49.992;14.512;2023-03-25T02:51:30;97114.84;;;7.46;63.96
75039;BME280;63609;49.992;14.512;2023-03-25T02:54:02;97105.44;;;7.51;63.27
75039;BME280;63609;49.992;14.512;2023-03-25T02:56:33;97105.84;;;7.39;63.93
75039;BME280;63609;49.992;14.512;2023-03-25T02:59:01;97097.38;;;7.61;62.79
75039;BME280;63609;49.992;14.512;2023-03-25T03:01:30;97096.41;;;7.44;62.89
75039;BME280;63609;49.992;14.512;2023-03-25T03:04:01;97097.41;;;7.43;63.25
75039;BME280;63609;49.992;14.512;2023-03-25T03:06:29;97086.59;;;7.37;62.17
75039;BME280;63609;49.992;14.512;2023-03-25T03:25:30;97096.56;;;7.43;61.26
75039;BME280;63609;49.992;14.512;2023-03-25T03:28:06;97104.19;;;7.38;60.90
75039;BME280;63609;49.992;14.512;2023-03-25T03:33:21;97098.63;;;7.13;62.09
75039;BME280;63609;49.992;14.512;2023-03-25T03:35:55;97102.66;;;7.17;62.01
75039;BME280;63609;49.992;14.512;2023-03-25T03:38:32;97103.81;;;7.32;62.26
75039;BME280;63609;49.992;14.512;2023-03-25T03:41:06;97101.38;;;7.21;61.88
75039;BME280;63609;49.992;14.512;2023-03-25T03:43:49;97109.81;;;7.34;61.02
75039;BME280;63609;49.992;14.512;2023-03-25T03:46:22;97101.75;;;7.26;60.98
75039;BME280;63609;49.992;14.512;2023-03-25T03:48:55;97116.38;;;7.13;61.11
75039;BME280;63609;49.992;14.512;2023-03-25T03:56:43;97122.69;;;6.94;61.26
75039;BME280;63609;49.992;14.512;2023-03-25T03:59:18;97119.94;;;6.86;61.25
75039;BME280;63609;49.992;14.512;2023-03-25T04:01:57;97120.78;;;6.86;60.88
75039;BME280;63609;49.992;14.512;2023-03-25T04:04:26;97123.06;;;6.81;61.38
75039;BME280;63609;49.992;14.512;2023-03-25T04:07:14;97120.34;;;7.09;60.29
75039;BME280;63609;49.992;14.512;2023-03-25T04:12:31;97131.94;;;7.08;59.60
75039;BME280;63609;49.992;14.512;2023-03-25T04:15:02;97134.44;;;6.73;60.84
75039;BME280;63609;49.992;14.512;2023-03-25T04:17:29;97132.69;;;6.82;61.11
75039;BME280;63609;49.992;14.512;2023-03-25T04:19:59;97123.75;;;6.65;61.44
75039;BME280;63609;49.992;14.512;2023-03-25T04:22:27;97118.06;;;6.96;60.04
75039;BME280;63609;49.992;14.512;2023-03-25T04:24:55;97121.53;;;6.79;60.61
75039;BME280;63609;49.992;14.512;2023-03-25T04:27:25;97117.31;;;7.03;59.39
75039;BME280;63609;49.992;14.512;2023-03-25T04:29:55;97114.94;;;7.18;59.30
75039;BME280;63609;49.992;14.512;2023-03-25T04:32:23;97119.41;;;7.18;58.51
75039;BME280;63609;49.992;14.512;2023-03-25T04:34:54;97113.88;;;7.11;58.90
75039;BME280;63609;49.992;14.512;2023-03-25T04:37:26;97113.00;;;7.02;59.95
75039;BME280;63609;49.992;14.512;2023-03-25T04:39:53;97099.41;;;6.70;60.33
75039;BME280;63609;49.992;14.512;2023-03-25T04:42:21;97106.47;;;6.61;61.27
75039;BME280;63609;49.992;14.512;2023-03-25T04:44:59;97122.94;;;6.37;62.09
75039;BME280;63609;49.992;14.512;2023-03-25T04:47:26;97107.09;;;6.46;61.58
75039;BME280;63609;49.992;14.512;2023-03-25T04:49:53;97103.97;;;6.78;60.92
75039;BME280;63609;49.992;14.512;2023-03-25T04:52:20;97108.47;;;6.50;62.22
75039;BME280;63609;49.992;14.512;2023-03-25T04:54:47;97104.50;;;6.63;61.80
75039;BME280;63609;49.992;14.512;2023-03-25T04:57:14;97107.81;;;6.65;61.31
75039;BME280;63609;49.992;14.512;2023-03-25T04:59:41;97110.94;;;6.79;61.65
75039;BME280;63609;49.992;14.512;2023-03-25T05:02:09;97111.75;;;6.79;61.37
75039;BME280;63609;49.992;14.512;2023-03-25T05:04:40;97114.31;;;6.53;62.05
75039;BME280;63609;49.992;14.512;2023-03-25T05:07:08;97125.94;;;6.70;61.99
75039;BME280;63609;49.992;14.512;2023-03-25T05:09:38;97134.16;;;6.94;60.34
75039;BME280;63609;49.992;14.512;2023-03-25T05:12:06;97138.78;;;6.92;60.64
75039;BME280;63609;49.992;14.512;2023-03-25T05:14:37;97140.97;;;6.97;60.73
75039;BME280;63609;49.992;14.512;2023-03-25T05:17:04;97137.94;;;6.92;60.67
75039;BME280;63609;49.992;14.512;2023-03-25T05:19:31;97142.38;;;6.73;61.54
75039;BME280;63609;49.992;14.512;2023-03-25T05:22:01;97142.69;;;6.70;61.79
75039;BME280;63609;49.992;14.512;2023-03-25T05:24:29;97150.72;;;6.79;61.47
75039;BME280;63609;49.992;14.512;2023-03-25T05:26:56;97150.94;;;6.67;61.81
75039;BME280;63609;49.992;14.512;2023-03-25T05:29:28;97163.59;;;6.56;61.77
75039;BME280;63609;49.992;14.512;2023-03-25T05:32:02;97167.00;;;6.66;61.49
75039;BME280;63609;49.992;14.512;2023-03-25T05:34:29;97169.00;;;7.17;59.64
75039;BME280;63609;49.992;14.512;2023-03-25T05:36:56;97158.06;;;6.85;60.34
75039;BME280;63609;49.992;14.512;2023-03-25T05:39:23;97166.91;;;6.58;61.48
75039;BME280;63609;49.992;14.512;2023-03-25T05:41:52;97160.94;;;6.56;61.01
75039;BME280;63609;49.992;14.512;2023-03-25T05:44:21;97157.00;;;6.60;61.32
75039;BME280;63609;49.992;14.512;2023-03-25T05:46:48;97156.59;;;7.00;60.39
75039;BME280;63609;49.992;14.512;2023-03-25T05:49:15;97159.28;;;6.72;60.38
75039;BME280;63609;49.992;14.512;2023-03-25T05:51:44;97159.75;;;6.86;60.32
75039;BME280;63609;49.992;14.512;2023-03-25T05:54:11;97155.06;;;6.97;59.28
75039;BME280;63609;49.992;14.512;2023-03-25T05:56:39;97160.22;;;7.17;58.17
75039;BME280;63609;49.992;14.512;2023-03-25T05:59:07;97157.16;;;6.76;58.45
75039;BME280;63609;49.992;14.512;2023-03-25T06:01:37;97173.66;;;6.97;57.99
75039;BME280;63609;49.992;14.512;2023-03-25T06:04:04;97162.13;;;6.89;57.69
75039;BME280;63609;49.992;14.512;2023-03-25T06:06:36;97168.88;;;7.01;57.47
75039;BME280;63609;49.992;14.512;2023-03-25T06:09:03;97179.31;;;7.20;57.41
75039;BME280;63609;49.992;14.512;2023-03-25T06:11:31;97175.00;;;7.19;57.33
75039;BME280;63609;49.992;14.512;2023-03-25T06:14:05;97181.69;;;7.23;56.59
75039;BME280;63609;49.992;14.512;2023-03-25T06:16:33;97167.97;;;7.46;56.42
75039;BME280;63609;49.992;14.512;2023-03-25T06:19:01;97163.53;;;7.19;56.45
75039;BME280;63609;49.992;14.512;2023-03-25T06:21:33;97160.97;;;6.91;56.65
75039;BME280;63609;49.992;14.512;2023-03-25T06:24:01;97179.56;;;6.91;57.00
75039;BME280;63609;49.992;14.512;2023-03-25T06:26:29;97179.47;;;7.01;56.12
75039;BME280;63609;49.992;14.512;2023-03-25T06:28:56;97178.06;;;7.24;55.16
75039;BME280;63609;49.992;14.512;2023-03-25T06:31:25;97184.50;;;7.40;54.82
75039;BME280;63609;49.992;14.512;2023-03-25T06:33:54;97185.03;;;7.43;54.14
75039;BME280;63609;49.992;14.512;2023-03-25T06:36:23;97179.88;;;7.42;54.81
75039;BME280;63609;49.992;14.512;2023-03-25T06:38:52;97185.78;;;7.00;55.51
75039;BME280;63609;49.992;14.512;2023-03-25T06:41:22;97181.56;;;6.80;56.65
75039;BME280;63609;49.992;14.512;2023-03-25T06:44:09;97192.16;;;7.07;55.72
75039;BME280;63609;49.992;14.512;2023-03-25T06:46:45;97191.75;;;7.02;55.73
75039;BME280;63609;49.992;14.512;2023-03-25T06:49:22;97184.06;;;7.44;55.17
75039;BME280;63609;49.992;14.512;2023-03-25T06:51:50;97195.41;;;7.72;54.67
75039;BME280;63609;49.992;14.512;2023-03-25T06:54:17;97171.22;;;7.22;54.99
75039;BME280;63609;49.992;14.512;2023-03-25T06:56:44;97188.78;;;7.76;53.64
75039;BME280;63609;49.992;14.512;2023-03-25T06:59:14;97188.97;;;8.01;53.77
75039;BME280;63609;49.992;14.512;2023-03-25T07:01:43;97191.75;;;7.73;53.84
75039;BME280;63609;49.992;14.512;2023-03-25T07:04:12;97199.28;;;8.04;52.93
75039;BME280;63609;49.992;14.512;2023-03-25T07:06:40;97201.44;;;7.82;53.33
75039;BME280;63609;49.992;14.512;2023-03-25T07:09:07;97196.59;;;7.78;53.59
75039;BME280;63609;49.992;14.512;2023-03-25T07:11:34;97199.47;;;7.84;53.63
75039;BME280;63609;49.992;14.512;2023-03-25T07:14:02;97206.28;;;7.61;54.23
75039;BME280;63609;49.992;14.512;2023-03-25T07:16:30;97195.34;;;7.46;54.77
75039;BME280;63609;49.992;14.512;2023-03-25T07:18:58;97197.28;;;7.80;54.08
75039;BME280;63609;49.992;14.512;2023-03-25T07:21:25;97207.31;;;7.86;53.95
75039;BME280;63609;49.992;14.512;2023-03-25T07:23:53;97204.22;;;7.73;54.51
75039;BME280;63609;49.992;14.512;2023-03-25T07:26:21;97203.09;;;7.83;53.66
75039;BME280;63609;49.992;14.512;2023-03-25T07:28:48;97197.63;;;7.85;53.22
75039;BME280;63609;49.992;14.512;2023-03-25T07:31:15;97201.44;;;7.82;53.03
75039;BME280;63609;49.992;14.512;2023-03-25T07:33:43;97196.75;;;7.76;54.05
75039;BME280;63609;49.992;14.512;2023-03-25T07:36:12;97196.78;;;8.02;53.58
75039;BME280;63609;49.992;14.512;2023-03-25T07:39:03;97190.13;;;7.80;53.90
75039;BME280;63609;49.992;14.512;2023-03-25T07:41:38;97192.59;;;8.00;53.38
75039;BME280;63609;49.992;14.512;2023-03-25T07:44:19;97194.03;;;7.86;53.53
75039;BME280;63609;49.992;14.512;2023-03-25T07:46:48;97191.19;;;8.13;53.83
75039;BME280;63609;49.992;14.512;2023-03-25T07:49:16;97205.03;;;8.51;53.30
75039;BME280;63609;49.992;14.512;2023-03-25T07:51:45;97209.19;;;8.53;53.00
75039;BME280;63609;49.992;14.512;2023-03-25T07:54:12;97197.81;;;8.09;53.63
75039;BME280;63609;49.992;14.512;2023-03-25T07:56:40;97212.91;;;7.83;53.69
75039;BME280;63609;49.992;14.512;2023-03-25T07:59:10;97213.75;;;8.09;53.28
75039;BME280;63609;49.992;14.512;2023-03-25T08:01:49;97206.94;;;8.07;53.18
75039;BME280;63609;49.992;14.512;2023-03-25T08:04:16;97213.56;;;7.59;54.89
75039;BME280;63609;49.992;14.512;2023-03-25T08:06:44;97213.66;;;7.93;53.34
75039;BME280;63609;49.992;14.512;2023-03-25T08:09:13;97204.63;;;8.12;53.16
75039;BME280;63609;49.992;14.512;2023-03-25T08:11:42;97212.84;;;7.92;52.66
75039;BME280;63609;49.992;14.512;2023-03-25T08:14:10;97212.28;;;7.63;52.78
75039;BME280;63609;49.992;14.512;2023-03-25T08:16:39;97206.09;;;7.80;53.14
75039;BME280;63609;49.992;14.512;2023-03-25T08:19:11;97199.78;;;8.07;52.43
75039;BME280;63609;49.992;14.512;2023-03-25T08:21:38;97202.59;;;8.06;51.93
75039;BME280;63609;49.992;14.512;2023-03-25T08:24:06;97208.63;;;8.16;52.27
75039;BME280;63609;49.992;14.512;2023-03-25T08:26:34;97198.16;;;8.14;51.87
75039;BME280;63609;49.992;14.512;2023-03-25T08:29:04;97201.31;;;8.44;51.38
75039;BME280;63609;49.992;14.512;2023-03-25T08:31:34;97206.88;;;7.99;52.38
75039;BME280;63609;49.992;14.512;2023-03-25T08:34:05;97215.28;;;8.46;51.04
75039;BME280;63609;49.992;14.512;2023-03-25T08:36:32;97205.31;;;8.82;49.97
75039;BME280;63609;49.992;14.512;2023-03-25T08:39:00;97205.28;;;9.40;49.07
75039;BME280;63609;49.992;14.512;2023-03-25T08:41:34;97193.31;;;9.36;48.56
75039;BME280;63609;49.992;14.512;2023-03-25T08:44:05;97196.31;;;9.33;48.28
75039;BME280;63609;49.992;14.512;2023-03-25T08:46:36;97200.00;;;9.81;47.32
75039;BME280;63609;49.992;14.512;2023-03-25T08:49:04;97192.00;;;9.65;48.38
75039;BME280;63609;49.992;14.512;2023-03-25T08:51:32;97197.28;;;9.16;48.15
75039;BME280;63609;49.992;14.512;2023-03-25T08:54:00;97204.78;;;8.70;50.12
75039;BME280;63609;49.992;14.512;2023-03-25T08:56:27;97228.47;;;8.21;55.04
75039;BME280;63609;49.992;14.512;2023-03-25T08:58:57;97229.09;;;6.73;59.10
75039;BME280;63609;49.992;14.512;2023-03-25T09:01:25;97270.59;;;5.21;68.03
75039;BME280;63609;49.992;14.512;2023-03-25T09:03:52;97272.34;;;4.92;67.26
75039;BME280;63609;49.992;14.512;2023-03-25T09:06:21;97244.69;;;5.15;64.59
75039;BME280;63609;49.992;14.512;2023-03-25T09:08:48;97244.28;;;5.20;64.63
75039;BME280;63609;49.992;14.512;2023-03-25T09:11:19;97241.06;;;6.03;64.77
75039;BME280;63609;49.992;14.512;2023-03-25T09:14:03;97240.97;;;5.95;62.97
75039;BME280;63609;49.992;14.512;2023-03-25T09:16:31;97253.00;;;6.26;63.67
75039;BME280;63609;49.992;14.512;2023-03-25T09:19:00;97246.84;;;6.35;63.55
75039;BME280;63609;49.992;14.512;2023-03-25T09:21:27;97243.38;;;6.25;62.73
75039;BME280;63609;49.992;14.512;2023-03-25T09:23:54;97243.13;;;6.83;61.56
75039;BME280;63609;49.992;14.512;2023-03-25T09:26:23;97238.72;;;7.19;60.54
75039;BME280;63609;49.992;14.512;2023-03-25T09:28:54;97244.53;;;7.68;58.80
75039;BME280;63609;49.992;14.512;2023-03-25T09:31:27;97235.94;;;7.39;58.19
75039;BME280;63609;49.992;14.512;2023-03-25T09:33:55;97250.00;;;7.31;58.24
75039;BME280;63609;49.992;14.512;2023-03-25T09:36:23;97259.25;;;7.17;59.74
75039;BME280;63609;49.992;14.512;2023-03-25T09:38:50;97250.88;;;7.22;59.18
75039;BME280;63609;49.992;14.512;2023-03-25T09:41:33;97250.81;;;7.31;58.59
75039;BME280;63609;49.992;14.512;2023-03-25T09:44:18;97249.31;;;7.64;56.36
75039;BME280;63609;49.992;14.512;2023-03-25T09:46:49;97243.94;;;7.56;56.45
75039;BME280;63609;49.992;14.512;2023-03-25T09:49:23;97250.81;;;7.67;55.79
75039;BME280;63609;49.992;14.512;2023-03-25T09:51:52;97247.13;;;8.30;55.25
75039;BME280;63609;49.992;14.512;2023-03-25T09:54:29;97243.78;;;8.02;54.53
75039;BME280;63609;49.992;14.512;2023-03-25T09:57:05;97253.13;;;8.32;53.59
75039;BME280;63609;49.992;14.512;2023-03-25T09:59:40;97247.91;;;8.22;53.13
75039;BME280;63609;49.992;14.512;2023-03-25T10:13:31;97210.59;;;8.06;51.54
75039;BME280;63609;49.992;14.512;2023-03-25T10:16:41;97217.59;;;8.15;50.36
75039;BME280;63609;49.992;14.512;2023-03-25T10:22:20;97219.19;;;8.00;51.18
75039;BME280;63609;49.992;14.512;2023-03-25T10:24:55;97217.97;;;7.68;50.07
75039;BME280;63609;49.992;14.512;2023-03-25T10:27:39;97226.09;;;8.44;50.16
75039;BME280;63609;49.992;14.512;2023-03-25T10:32:52;97210.81;;;7.86;50.69
75039;BME280;63609;49.992;14.512;2023-03-25T10:35:27;97215.94;;;8.14;50.20
75039;BME280;63609;49.992;14.512;2023-03-25T10:37:59;97213.56;;;8.28;49.21
75039;BME280;63609;49.992;14.512;2023-03-25T10:40:42;97204.28;;;8.07;50.52
75039;BME280;63609;49.992;14.512;2023-03-25T10:45:56;97197.06;;;8.51;48.56
75039;BME280;63609;49.992;14.512;2023-03-25T10:48:27;97190.13;;;8.66;47.74
75039;BME280;63609;49.992;14.512;2023-03-25T10:51:03;97190.00;;;8.76;48.07
75039;BME280;63609;49.992;14.512;2023-03-25T10:53:36;97198.81;;;8.76;47.40
75039;BME280;63609;49.992;14.512;2023-03-25T10:56:17;97197.97;;;9.26;47.82
75039;BME280;63609;49.992;14.512;2023-03-25T10:58:54;97193.31;;;8.70;47.84
75039;BME280;63609;49.992;14.512;2023-03-25T11:01:38;97201.09;;;9.13;47.82
75039;BME280;63609;49.992;14.512;2023-03-25T11:04:09;97181.09;;;9.01;47.09
75039;BME280;63609;49.992;14.512;2023-03-25T11:06:40;97189.50;;;9.71;46.34
75039;BME280;63609;49.992;14.512;2023-03-25T11:11:51;97193.47;;;9.18;46.95
75039;BME280;63609;49.992;14.512;2023-03-25T11:14:24;97191.13;;;9.24;47.29
75039;BME280;63609;49.992;14.512;2023-03-25T11:17:02;97170.53;;;9.50;45.92
75039;BME280;63609;49.992;14.512;2023-03-25T11:19:35;97179.81;;;9.46;46.07
75039;BME280;63609;49.992;14.512;2023-03-25T11:22:16;97153.47;;;10.08;44.49
75039;BME280;63609;49.992;14.512;2023-03-25T11:24:48;97171.50;;;9.73;46.04
75039;BME280;63609;49.992;14.512;2023-03-25T11:27:25;97167.16;;;9.24;44.82
75039;BME280;63609;49.992;14.512;2023-03-25T11:30:04;97160.50;;;9.85;43.68
75039;BME280;63609;49.992;14.512;2023-03-25T11:32:38;97147.84;;;10.42;43.65
75039;BME280;63609;49.992;14.512;2023-03-25T11:35:21;97142.16;;;10.53;42.54
75039;BME280;63609;49.992;14.512;2023-03-25T11:37:55;97135.53;;;9.61;42.53
75039;BME280;63609;49.992;14.512;2023-03-25T11:40:29;97136.16;;;9.79;43.46
75039;BME280;63609;49.992;14.512;2023-03-25T11:42:59;97152.66;;;9.91;42.65
75039;BME280;63609;49.992;14.512;2023-03-25T11:45:35;97140.44;;;10.13;43.61
75039;BME280;63609;49.992;14.512;2023-03-25T11:48:14;97136.34;;;9.78;43.90
75039;BME280;63609;49.992;14.512;2023-03-25T11:50:46;97137.38;;;9.52;44.05
75039;BME280;63609;49.992;14.512;2023-03-25T11:53:20;97134.94;;;10.23;43.16
75039;BME280;63609;49.992;14.512;2023-03-25T11:55:51;97121.66;;;11.07;44.61
75039;BME280;63609;49.992;14.512;2023-03-25T11:58:28;97127.06;;;10.68;42.41
75039;BME280;63609;49.992;14.512;2023-03-25T12:01:24;97125.81;;;10.87;41.46
75039;BME280;63609;49.992;14.512;2023-03-25T12:04:19;97127.75;;;10.93;41.69
75039;BME280;63609;49.992;14.512;2023-03-25T12:06:56;97131.38;;;11.00;40.88
75039;BME280;63609;49.992;14.512;2023-03-25T12:09:29;97131.53;;;10.76;41.20
75039;BME280;63609;49.992;14.512;2023-03-25T12:15:14;97121.44;;;10.24;41.63
75039;BME280;63609;49.992;14.512;2023-03-25T12:17:50;97125.34;;;9.81;42.88
75039;BME280;63609;49.992;14.512;2023-03-25T12:22:59;97117.91;;;10.63;40.91
75039;BME280;63609;49.992;14.512;2023-03-25T12:39:39;97101.38;;;10.67;39.48
75039;BME280;63609;49.992;14.512;2023-03-25T12:45:26;97078.47;;;10.11;38.31
75039;BME280;63609;49.992;14.512;2023-03-25T12:50:39;97069.78;;;11.02;37.13
75039;BME280;63609;49.992;14.512;2023-03-25T12:56:14;97082.31;;;10.08;39.21
75039;BME280;63609;49.992;14.512;2023-03-25T13:04:48;97061.91;;;10.86;37.25
75039;BME280;63609;49.992;14.512;2023-03-25T13:08:09;97063.88;;;11.15;37.29
75039;BME280;63609;49.992;14.512;2023-03-25T13:10:19;97065.50;;;10.70;37.83
75039;BME280;63609;49.992;14.512;2023-03-25T13:12:50;97065.97;;;10.42;38.43
75039;BME280;63609;49.992;14.512;2023-03-25T13:15:24;97061.94;;;10.55;37.61
75039;BME280;63609;49.992;14.512;2023-03-25T13:17:58;97065.50;;;10.39;39.30
75039;BME280;63609;49.992;14.512;2023-03-25T13:20:30;97057.41;;;10.55;37.95
75039;BME280;63609;49.992;14.512;2023-03-25T13:23:01;97046.09;;;10.53;38.05
75039;BME280;63609;49.992;14.512;2023-03-25T13:26:03;97049.53;;;11.16;37.66
75039;BME280;63609;49.992;14.512;2023-03-25T13:28:50;97042.50;;;11.67;36.66
75039;BME280;63609;49.992;14.512;2023-03-25T13:31:31;97042.16;;;11.18;35.16
75039;BME280;63609;49.992;14.512;2023-03-25T13:37:07;97037.47;;;11.34;34.94
75039;BME280;63609;49.992;14.512;2023-03-25T13:42:32;97038.31;;;11.35;35.83
75039;BME280;63609;49.992;14.512;2023-03-25T13:45:04;97039.41;;;11.41;35.49
75039;BME280;63609;49.992;14.512;2023-03-25T13:47:38;97025.81;;;10.90;35.62
75039;BME280;63609;49.992;14.512;2023-03-25T13:50:17;97032.34;;;10.87;35.69
75039;BME280;63609;49.992;14.512;2023-03-25T13:53:06;97034.94;;;10.10;35.75
75039;BME280;63609;49.992;14.512;2023-03-25T13:55:38;97037.34;;;10.36;35.36
75039;BME280;63609;49.992;14.512;2023-03-25T14:01:03;97047.06;;;10.29;35.69
75039;BME280;63609;49.992;14.512;2023-03-25T14:12:51;97041.00;;;10.89;36.47
75039;BME280;63609;49.992;14.512;2023-03-25T14:15:22;97035.22;;;11.76;36.24
75039;BME280;63609;49.992;14.512;2023-03-25T14:17:53;97023.59;;;12.42;34.85
75039;BME280;63609;49.992;14.512;2023-03-25T14:20:34;97023.06;;;12.17;34.66
75039;BME280;63609;49.992;14.512;2023-03-25T14:23:07;97030.94;;;11.37;35.32
75039;BME280;63609;49.992;14.512;2023-03-25T14:25:47;97034.66;;;11.51;35.66
75039;BME280;63609;49.992;14.512;2023-03-25T14:28:36;97036.41;;;11.73;35.20
75039;BME280;63609;49.992;14.512;2023-03-25T14:44:39;97091.31;;;7.51;48.36
75039;BME280;63609;49.992;14.512;2023-03-25T14:50:35;97107.00;;;7.36;51.45
75039;BME280;63609;49.992;14.512;2023-03-25T14:53:03;97116.31;;;7.04;53.49
75039;BME280;63609;49.992;14.512;2023-03-25T14:55:41;97131.34;;;6.96;54.54
75039;BME280;63609;49.992;14.512;2023-03-25T14:58:23;97127.88;;;6.50;56.76
75039;BME280;63609;49.992;14.512;2023-03-25T15:00:54;97127.38;;;6.64;56.54
75039;BME280;63609;49.992;14.512;2023-03-25T15:03:31;97123.50;;;6.59;56.02
75039;BME280;63609;49.992;14.512;2023-03-25T15:06:03;97143.09;;;6.48;56.37
75039;BME280;63609;49.992;14.512;2023-03-25T15:08:35;97130.19;;;6.63;56.29
75039;BME280;63609;49.992;14.512;2023-03-25T15:11:13;97124.06;;;6.53;56.12
75039;BME280;63609;49.992;14.512;2023-03-25T15:13:50;97140.63;;;6.64;55.97
75039;BME280;63609;49.992;14.512;2023-03-25T15:19:16;97133.91;;;7.06;56.59
75039;BME280;63609;49.992;14.512;2023-03-25T15:24:31;97110.63;;;7.17;55.30
75039;BME280;63609;49.992;14.512;2023-03-25T15:27:27;97112.00;;;6.68;55.80
75039;BME280;63609;49.992;14.512;2023-03-25T15:30:09;97108.81;;;7.00;55.11
75039;BME280;63609;49.992;14.512;2023-03-25T15:52:59;97141.00;;;7.84;51.88
75039;BME280;63609;49.992;14.512;2023-03-25T15:55:38;97126.97;;;7.48;51.86
75039;BME280;63609;49.992;14.512;2023-03-25T15:58:14;97130.50;;;7.75;51.59
75039;BME280;63609;49.992;14.512;2023-03-25T16:00:50;97123.13;;;8.20;51.01
75039;BME280;63609;49.992;14.512;2023-03-25T16:03:30;97133.41;;;7.89;50.90
75039;BME280;63609;49.992;14.512;2023-03-25T16:06:02;97138.66;;;8.07;50.20
75039;BME280;63609;49.992;14.512;2023-03-25T16:08:35;97130.09;;;8.21;50.64
75039;BME280;63609;49.992;14.512;2023-03-25T16:11:24;97136.03;;;7.55;51.08
75039;BME280;63609;49.992;14.512;2023-03-25T16:14:22;97144.91;;;8.24;49.63
75039;BME280;63609;49.992;14.512;2023-03-25T16:16:52;97150.38;;;8.22;49.60